CYPE

Peace River Airport

Peace River, Alberta, Canada
METAR CYPE 232300Z 05005KT 15SM VCFG FEW002 SCT210 M12/M14 A2987 RMK SF1CI2 VIS SE-SW 2 SLP159
Observed Flight Rules
Jan-23 @ 23:00 UTC (40 minutes ago) Visual Flight Rules
Wind Visibility Clouds Conditions
50° at 5 knots 15 miles
  • Few at 200' AGL
  • Scattered at 21,000' AGL
  • Area Fog
Temperatures Readings
Current -12°C / 10°F
Dewpoint -14°C / 7°F
Humidity 85%
Altimeter 29.87" Hg
Pressure 1015.9 hPa
Elevation 571
METAR CYPE 232300Z 05005KT 15SM VCFG FEW002 SCT210 M12/M14 A2987 RMK SF1CI2 VIS SE-SW 2 SLP159
Observed Flight Rules
Jan-23 @ 23:00 UTC
(40 minutes ago)
VFR
Wind Visibility
50° at 5 knots 15 miles
Clouds
  • Few at 200' AGL
  • Scattered at 21,000' AGL
Conditions
  • Area Fog
Temperature Dewpoint
-12°C / 10°F -14°C / 7°F
Humidity Altimeter Pressure
85% 29.87" Hg 1015.9 hPa